Time;durP1;ratioP1;P1;durP2;ratioP2;P2;SDS_P1;SDS_P2;PMS_P1;PMS_P2;Temp;Humidity;BMP_temperature;BMP_pressure;BME280_temperature;BME280_humidity;BME280_pressure;Samples;Min_cycle;Max_cycle;Signal;HPM_P1;HPM_P2
2021/12/15 00:01:22;;;;;;;74.20;38.88;;;10.20;99.90;;;;;;5032605;28;20033;-72
2021/12/15 00:03:47;;;;;;;70.13;38.60;;;10.20;99.90;;;;;;5032813;28;20025;-72
2021/12/15 00:06:18;;;;;;;68.03;38.97;;;10.20;99.90;;;;;;5014911;28;20018;-72
2021/12/15 00:08:46;;;;;;;71.67;37.43;;;10.20;99.90;;;;;;5032733;28;20057;-72
2021/12/15 00:11:13;;;;;;;70.87;39.00;;;10.20;99.90;;;;;;5014321;28;20105;-72
2021/12/15 00:13:41;;;;;;;71.57;38.63;;;10.20;99.90;;;;;;5032509;28;20362;-72
2021/12/15 00:16:08;;;;;;;75.47;42.00;;;10.10;99.90;;;;;;5033590;28;20152;-73
2021/12/15 00:18:35;;;;;;;73.67;40.63;;;10.10;99.90;;;;;;5018274;28;20021;-72
2021/12/15 00:21:03;;;;;;;68.17;38.17;;;10.10;99.90;;;;;;5018335;28;20500;-73
2021/12/15 00:23:30;;;;;;;66.67;38.87;;;10.00;99.90;;;;;;5018427;28;20452;-73
2021/12/15 00:25:56;;;;;;;73.53;40.53;;;10.10;99.90;;;;;;5035816;28;20025;-72
2021/12/15 00:28:22;;;;;;;71.23;37.50;;;10.10;99.90;;;;;;5035916;28;20489;-72
2021/12/15 00:30:47;;;;;;;75.67;37.67;;;10.10;99.90;;;;;;5035775;28;20079;-73
2021/12/15 00:33:13;;;;;;;77.10;39.63;;;10.10;99.90;;;;;;5035896;28;20112;-72
2021/12/15 00:35:39;;;;;;;59.90;32.40;;;10.00;99.90;;;;;;5035640;28;20084;-72
2021/12/15 00:38:06;;;;;;;70.63;36.13;;;10.10;99.90;;;;;;5035911;28;20474;-73
2021/12/15 00:40:32;;;;;;;67.03;37.67;;;10.10;99.90;;;;;;5035675;28;20452;-72
2021/12/15 00:42:58;;;;;;;68.87;37.73;;;10.10;99.90;;;;;;5035317;28;20025;-72
2021/12/15 00:45:25;;;;;;;69.60;37.57;;;10.20;99.90;;;;;;5001549;28;20484;-72
2021/12/15 00:47:51;;;;;;;74.10;39.20;;;10.10;99.90;;;;;;5035559;28;20443;-72
2021/12/15 00:50:22;;;;;;;73.33;40.23;;;10.10;99.90;;;;;;5035587;28;20151;-72
2021/12/15 00:52:48;;;;;;;68.57;38.43;;;10.10;99.90;;;;;;5035688;28;20033;-73
2021/12/15 00:55:19;;;;;;;76.53;39.23;;;10.10;99.90;;;;;;5035154;28;20033;-73
2021/12/15 00:57:45;;;;;;;67.90;37.43;;;10.10;99.90;;;;;;5017630;28;20037;-72
2021/12/15 01:00:15;;;;;;;68.03;37.40;;;10.10;99.90;;;;;;5035427;28;20040;-72
2021/12/15 01:02:41;;;;;;;64.60;37.37;;;10.10;99.90;;;;;;5035283;28;20485;-72
2021/12/15 01:05:08;;;;;;;64.20;36.57;;;10.10;99.90;;;;;;5035318;28;20050;-72
2021/12/15 01:07:35;;;;;;;73.60;39.97;;;10.10;99.90;;;;;;5017560;28;20083;-72
2021/12/15 01:10:00;;;;;;;78.33;41.57;;;10.10;99.90;;;;;;5034636;28;20034;-73
2021/12/15 01:20:43;;;;;;;75.20;37.97;;;10.10;99.90;;;;;;5035100;28;20123;-72
2021/12/15 01:23:13;;;;;;;68.20;38.53;;;10.10;99.90;;;;;;5034781;28;20397;-72
2021/12/15 01:25:42;;;;;;;73.53;39.93;;;10.10;99.90;;;;;;5034575;28;20022;-72
2021/12/15 01:28:09;;;;;;;67.43;37.03;;;10.10;99.90;;;;;;5033764;28;20021;-72
2021/12/15 01:30:40;;;;;;;71.50;39.73;;;10.10;99.90;;;;;;5000698;28;20117;-72
2021/12/15 01:33:06;;;;;;;77.63;40.43;;;10.10;99.90;;;;;;5016973;28;20045;-72
2021/12/15 01:35:33;;;;;;;73.57;40.47;;;10.10;99.90;;;;;;5034663;28;20033;-73
2021/12/15 01:37:59;;;;;;;76.43;40.47;;;10.20;99.90;;;;;;5034786;28;20393;-72
2021/12/15 01:40:39;;;;;;;78.70;42.37;;;10.10;99.90;;;;;;5034696;28;20041;-72
2021/12/15 01:43:18;;;;;;;73.97;39.90;;;10.20;99.90;;;;;;5016432;28;20037;-72
2021/12/15 01:48:37;;;;;;;73.57;40.97;;;10.10;99.90;;;;;;5034877;28;20040;-72
2021/12/15 01:51:06;;;;;;;77.63;41.73;;;10.20;99.90;;;;;;5016851;28;20029;-72
2021/12/15 01:53:34;;;;;;;76.93;40.40;;;10.10;99.90;;;;;;5034210;28;20026;-72
2021/12/15 01:56:00;;;;;;;82.13;43.57;;;10.10;99.90;;;;;;5016636;28;20025;-72
2021/12/15 01:58:26;;;;;;;77.93;42.37;;;10.20;99.90;;;;;;5034502;28;20436;-74
2021/12/15 02:01:01;;;;;;;73.90;40.93;;;10.10;99.90;;;;;;5034234;28;20031;-73
2021/12/15 02:03:27;;;;;;;69.87;36.30;;;10.10;99.90;;;;;;5034159;28;20075;-74
2021/12/15 02:05:54;;;;;;;75.33;40.40;;;10.10;99.90;;;;;;5034203;28;20034;-72
2021/12/15 02:08:21;;;;;;;79.10;42.67;;;10.10;99.90;;;;;;5033822;28;20470;-74
2021/12/15 02:10:47;;;;;;;74.53;40.47;;;10.10;99.90;;;;;;5034234;28;20048;-72
2021/12/15 02:13:16;;;;;;;77.43;41.13;;;10.10;99.90;;;;;;5033735;28;20057;-74
2021/12/15 02:15:49;;;;;;;77.57;39.67;;;10.10;99.90;;;;;;5033980;28;20029;-72
2021/12/15 02:18:17;;;;;;;73.68;38.65;;;10.10;99.90;;;;;;5016303;28;20075;-72
2021/12/15 02:20:49;;;;;;;79.50;40.93;;;10.10;99.90;;;;;;5033885;28;20074;-73
2021/12/15 02:23:19;;;;;;;73.80;40.90;;;10.20;99.90;;;;;;5033331;28;20041;-72
2021/12/15 02:25:45;;;;;;;80.73;42.53;;;10.10;99.90;;;;;;5016120;28;20063;-72
2021/12/15 02:28:11;;;;;;;73.53;40.03;;;10.20;99.90;;;;;;5033853;28;20079;-72
2021/12/15 02:30:49;;;;;;;75.00;39.67;;;10.20;99.90;;;;;;5033724;28;20044;-72
2021/12/15 02:38:38;;;;;;;73.93;39.60;;;10.20;99.90;;;;;;5033302;28;20045;-71
2021/12/15 02:41:09;;;;;;;71.90;39.60;;;10.10;99.90;;;;;;5033574;28;20108;-72
2021/12/15 02:43:36;;;;;;;76.97;39.53;;;10.20;99.90;;;;;;5033584;28;20090;-73
2021/12/15 02:46:03;;;;;;;71.07;38.53;;;10.10;99.90;;;;;;5033512;28;20032;-72
2021/12/15 02:48:29;;;;;;;68.23;36.57;;;10.10;99.90;;;;;;5015728;28;20034;-71
2021/12/15 02:50:56;;;;;;;74.43;39.30;;;10.20;99.90;;;;;;5033420;28;20079;-72
2021/12/15 02:53:22;;;;;;;74.10;39.43;;;10.20;99.90;;;;;;5033212;28;20032;-72
2021/12/15 02:55:49;;;;;;;72.87;36.77;;;10.20;99.90;;;;;;5033300;28;20041;-72
2021/12/15 02:58:15;;;;;;;66.17;36.03;;;10.10;99.90;;;;;;5015971;28;20052;-72
2021/12/15 03:04:09;;;;;;;;;;;10.20;99.90;;;;;;5016645;28;20041;-72
2021/12/15 03:06:41;;;;;;;69.47;36.40;;;10.10;99.90;;;;;;5020023;28;19909;-72
2021/12/15 03:17:03;;;;;;;67.20;35.78;;;10.20;99.90;;;;;;5033466;28;20037;-72
2021/12/15 03:19:29;;;;;;;71.87;36.90;;;10.10;99.90;;;;;;5015457;28;20026;-72
2021/12/15 03:21:55;;;;;;;68.93;37.67;;;10.10;99.90;;;;;;5032718;28;20080;-72
2021/12/15 03:24:23;;;;;;;69.87;37.30;;;10.10;99.90;;;;;;5032713;28;20030;-72
2021/12/15 03:27:11;;;;;;;71.97;37.73;;;10.10;99.90;;;;;;5015352;28;20424;-72
2021/12/15 03:37:43;;;;;;;70.67;35.50;;;10.10;99.90;;;;;;5032713;28;20056;-72
2021/12/15 03:40:18;;;;;;;63.03;34.00;;;10.20;99.90;;;;;;5032804;28;20025;-72
2021/12/15 03:42:52;;;;;;;70.10;37.17;;;10.20;99.90;;;;;;5015030;28;20022;-72
2021/12/15 03:45:25;;;;;;;69.88;37.85;;;10.20;99.90;;;;;;5032803;28;20029;-73
2021/12/15 03:47:52;;;;;;;67.80;35.80;;;10.20;99.90;;;;;;5032693;28;20021;-73
2021/12/15 03:50:19;;;;;;;72.57;37.50;;;10.10;99.90;;;;;;5015246;28;20389;-72
2021/12/15 03:52:49;;;;;;;75.87;38.37;;;10.10;99.90;;;;;;5036266;28;20029;-72
2021/12/15 03:55:17;;;;;;;67.40;37.30;;;10.10;99.90;;;;;;5036551;28;20036;-73
2021/12/15 03:57:43;;;;;;;72.70;38.33;;;10.10;99.90;;;;;;5036139;28;20033;-72
2021/12/15 04:00:12;;;;;;;72.87;39.40;;;10.10;99.90;;;;;;5036353;28;20112;-72
2021/12/15 04:02:38;;;;;;;70.33;36.43;;;10.10;99.90;;;;;;5036196;28;20032;-73
2021/12/15 04:05:07;;;;;;;67.77;36.17;;;10.10;99.90;;;;;;5036444;28;20018;-72
2021/12/15 04:07:32;;;;;;;74.03;37.33;;;10.10;99.90;;;;;;5036024;28;20083;-72
2021/12/15 04:09:58;;;;;;;75.33;37.37;;;10.10;99.90;;;;;;5036371;28;20377;-72
2021/12/15 04:12:24;;;;;;;79.45;37.53;;;10.10;99.90;;;;;;5036364;28;20030;-72
2021/12/15 04:15:08;;;;;;;69.33;36.03;;;10.10;99.90;;;;;;5036368;28;20136;-72
2021/12/15 04:17:34;;;;;;;75.83;37.17;;;10.10;99.90;;;;;;5021264;28;20029;-72
2021/12/15 04:20:10;;;;;;;77.40;38.83;;;10.10;99.90;;;;;;5036150;28;20284;-72
2021/12/15 04:22:36;;;;;;;69.07;35.43;;;10.10;99.90;;;;;;5035513;28;20104;-72
2021/12/15 04:25:12;;;;;;;72.57;37.17;;;10.10;99.90;;;;;;5024462;28;20033;-72
2021/12/15 04:27:39;;;;;;;65.20;33.23;;;10.10;99.90;;;;;;5036063;28;20080;-72
2021/12/15 04:30:09;;;;;;;58.03;29.97;;;10.10;99.90;;;;;;5035928;28;20026;-72
2021/12/15 04:32:43;;;;;;;72.80;35.07;;;10.10;99.90;;;;;;5035855;28;20057;-72
2021/12/15 04:35:11;;;;;;;65.97;33.37;;;10.10;99.90;;;;;;5035893;28;20470;-72
2021/12/15 04:37:37;;;;;;;64.20;34.73;;;10.10;99.90;;;;;;5017850;28;20053;-72
2021/12/15 04:40:06;;;;;;;63.10;33.77;;;10.10;99.90;;;;;;4998503;28;20018;-72
2021/12/15 04:42:32;;;;;;;68.33;36.07;;;10.10;99.90;;;;;;4998240;28;20026;-72
2021/12/15 04:44:58;;;;;;;68.67;35.63;;;10.10;99.90;;;;;;5015870;28;20049;-72
2021/12/15 04:47:25;;;;;;;74.47;37.60;;;10.10;99.90;;;;;;5015912;28;20383;-72
2021/12/15 04:49:54;;;;;;;67.87;37.47;;;10.10;99.90;;;;;;5015860;28;20037;-72
2021/12/15 04:52:24;;;;;;;69.87;37.00;;;10.10;99.90;;;;;;4999521;28;20033;-72
2021/12/15 04:54:50;;;;;;;67.83;35.27;;;10.10;99.90;;;;;;5015694;28;20029;-72
2021/12/15 04:57:18;;;;;;;66.13;34.20;;;10.10;99.90;;;;;;5015754;28;20041;-72
2021/12/15 04:59:45;;;;;;;69.83;36.73;;;10.00;99.90;;;;;;5015623;28;20092;-72
2021/12/15 05:02:12;;;;;;;66.87;34.53;;;10.10;99.90;;;;;;5015410;28;20122;-72
2021/12/15 05:04:38;;;;;;;70.40;36.17;;;10.10;99.90;;;;;;5015577;28;20022;-72
2021/12/15 05:07:04;;;;;;;66.67;34.30;;;10.10;99.90;;;;;;4998986;28;20037;-71
2021/12/15 05:09:30;;;;;;;72.83;37.37;;;10.10;99.90;;;;;;5035104;28;20105;-72
2021/12/15 05:11:55;;;;;;;66.77;35.67;;;10.10;99.90;;;;;;5017175;28;20229;-71
2021/12/15 05:14:23;;;;;;;70.57;36.90;;;10.10;99.90;;;;;;5017624;28;20088;-71
2021/12/15 05:16:50;;;;;;;72.10;37.90;;;10.20;99.90;;;;;;5035126;28;20477;-72
2021/12/15 05:19:16;;;;;;;64.90;34.60;;;10.20;99.90;;;;;;5035252;28;20025;-72
2021/12/15 05:21:42;;;;;;;64.73;34.93;;;10.20;99.90;;;;;;5017232;28;20133;-71
2021/12/15 05:24:14;;;;;;;67.23;35.57;;;10.20;99.90;;;;;;5034724;28;20421;-72
2021/12/15 05:26:41;;;;;;;68.70;37.17;;;10.20;99.90;;;;;;5034931;28;20477;-72
2021/12/15 05:29:07;;;;;;;68.63;35.73;;;10.20;99.90;;;;;;5008568;28;20037;-72
2021/12/15 05:31:33;;;;;;;69.13;35.93;;;10.20;99.90;;;;;;5030275;28;20038;-72
2021/12/15 05:33:59;;;;;;;69.77;36.00;;;10.20;99.90;;;;;;5033255;28;20025;-72
2021/12/15 05:36:24;;;;;;;71.10;36.23;;;10.10;99.90;;;;;;5032894;28;20040;-73
2021/12/15 05:38:50;;;;;;;70.07;38.03;;;10.20;99.90;;;;;;5034168;28;20362;-72
2021/12/15 05:41:16;;;;;;;75.47;39.33;;;10.20;99.90;;;;;;5034687;28;20033;-72
2021/12/15 05:43:42;;;;;;;65.33;34.50;;;10.20;99.90;;;;;;5000774;28;20037;-72
2021/12/15 05:46:08;;;;;;;66.30;35.93;;;10.20;99.90;;;;;;5034184;28;20136;-72
2021/12/15 05:48:33;;;;;;;69.17;35.57;;;10.20;99.90;;;;;;5016684;28;20120;-72
2021/12/15 05:50:59;;;;;;;71.77;36.73;;;10.20;99.90;;;;;;5016660;28;20392;-72
2021/12/15 05:53:25;;;;;;;71.77;36.63;;;10.20;99.90;;;;;;5033083;28;20037;-72
2021/12/15 05:55:51;;;;;;;65.70;34.77;;;10.20;99.90;;;;;;5027020;28;20140;-71
2021/12/15 05:58:17;;;;;;;63.60;34.80;;;10.20;99.90;;;;;;5034087;28;20041;-71
2021/12/15 06:00:45;;;;;;;68.20;35.87;;;10.20;99.90;;;;;;5027294;28;20052;-71
2021/12/15 06:03:12;;;;;;;76.00;36.60;;;10.30;99.90;;;;;;5014471;28;20029;-71
2021/12/15 06:05:38;;;;;;;69.27;36.93;;;10.30;99.90;;;;;;5023195;28;20091;-72
2021/12/15 06:08:06;;;;;;;70.37;37.70;;;10.20;99.90;;;;;;5003729;28;20037;-71
2021/12/15 06:10:35;;;;;;;70.03;36.23;;;10.20;99.90;;;;;;5012483;28;20120;-71
2021/12/15 06:13:03;;;;;;;70.40;38.03;;;10.20;99.90;;;;;;5030316;28;20033;-72
2021/12/15 06:15:29;;;;;;;64.33;35.77;;;10.20;99.90;;;;;;5021999;28;20398;-72
2021/12/15 06:18:03;;;;;;;66.03;35.57;;;10.20;99.90;;;;;;4999474;28;20033;-72
2021/12/15 06:20:29;;;;;;;69.75;37.05;;;10.20;99.90;;;;;;5025743;28;20033;-72
2021/12/15 06:22:58;;;;;;;78.07;40.13;;;10.20;99.90;;;;;;5011229;28;20486;-72
2021/12/15 06:25:24;;;;;;;71.90;37.90;;;10.20;99.90;;;;;;5006828;28;20018;-72
2021/12/15 06:27:50;;;;;;;71.60;39.50;;;10.20;99.90;;;;;;5001114;28;20057;-72
2021/12/15 06:30:16;;;;;;;71.23;37.37;;;10.20;99.90;;;;;;5003417;28;20026;-72
2021/12/15 06:32:42;;;;;;;73.93;38.70;;;10.20;99.90;;;;;;5002854;28;20509;-72
2021/12/15 06:35:09;;;;;;;69.53;37.63;;;10.20;99.90;;;;;;5000566;28;20050;-72
2021/12/15 06:37:35;;;;;;;73.40;38.00;;;10.20;99.90;;;;;;5008238;28;20121;-72
2021/12/15 06:40:07;;;;;;;71.43;37.40;;;10.20;99.90;;;;;;5009154;28;20554;-72
2021/12/15 06:42:33;;;;;;;72.90;39.07;;;10.20;99.90;;;;;;5003652;28;20034;-72
2021/12/15 06:44:59;;;;;;;70.03;36.00;;;10.20;99.90;;;;;;5004125;28;20029;-72
2021/12/15 06:58:26;;;;;;;;;;;10.30;99.90;;;;;;4992901;28;20084;-73
2021/12/15 07:00:55;;;;;;;68.90;35.70;;;10.20;99.90;;;;;;4997681;28;19964;-72
2021/12/15 07:03:22;;;;;;;72.47;36.57;;;10.20;99.90;;;;;;5005375;28;20136;-72
2021/12/15 07:05:49;;;;;;;69.57;36.63;;;10.20;99.90;;;;;;5013054;28;20038;-73
2021/12/15 07:08:16;;;;;;;73.07;34.23;;;10.20;99.90;;;;;;5013350;28;20049;-72
2021/12/15 07:10:46;;;;;;;78.67;37.73;;;10.30;99.90;;;;;;5010052;28;20080;-73
2021/12/15 07:13:13;;;;;;;78.13;38.87;;;10.30;99.90;;;;;;5007963;28;20025;-73
2021/12/15 07:15:40;;;;;;;67.13;34.00;;;10.20;99.90;;;;;;5002921;28;20096;-73
2021/12/15 07:18:09;;;;;;;74.77;36.60;;;10.20;99.90;;;;;;5001408;28;20120;-71
2021/12/15 07:23:03;;;;;;;75.13;37.33;;;10.30;99.90;;;;;;5024880;28;20052;-73
2021/12/15 07:25:30;;;;;;;77.70;36.87;;;10.30;99.90;;;;;;5014669;28;20377;-71
2021/12/15 07:27:57;;;;;;;73.90;35.20;;;10.30;99.90;;;;;;5033270;28;20042;-71
2021/12/15 07:30:23;;;;;;;79.37;38.37;;;10.30;99.90;;;;;;4999096;28;20018;-72
2021/12/15 07:32:49;;;;;;;87.73;40.47;;;10.30;99.90;;;;;;5016822;28;20033;-72
2021/12/15 07:35:16;;;;;;;82.23;38.00;;;10.40;99.90;;;;;;5023087;28;20037;-73
2021/12/15 07:37:42;;;;;;;82.27;37.53;;;10.30;99.90;;;;;;5018925;28;20396;-73
2021/12/15 07:40:12;;;;;;;85.07;38.03;;;10.30;99.90;;;;;;5037420;28;20041;-73
2021/12/15 07:42:54;;;;;;;86.90;37.90;;;10.30;99.90;;;;;;5033348;28;20543;-72
2021/12/15 07:45:22;;;;;;;77.07;36.07;;;10.30;99.90;;;;;;5018910;28;20029;-72
2021/12/15 07:47:49;;;;;;;79.57;38.73;;;10.30;99.90;;;;;;5036733;28;20084;-72
2021/12/15 07:50:15;;;;;;;81.30;37.43;;;10.30;99.90;;;;;;5022668;28;20021;-72
2021/12/15 07:52:41;;;;;;;84.37;38.67;;;10.30;99.90;;;;;;5056443;28;20035;-73
2021/12/15 07:55:07;;;;;;;92.83;38.73;;;10.30;99.90;;;;;;5048812;28;20033;-73
2021/12/15 07:57:33;;;;;;;90.40;41.63;;;10.40;99.90;;;;;;5036505;28;20029;-73
2021/12/15 07:59:58;;;;;;;84.30;39.33;;;10.40;99.90;;;;;;4999382;28;20540;-73
2021/12/15 08:02:25;;;;;;;89.80;41.53;;;10.40;99.90;;;;;;5025395;28;20026;-72
2021/12/15 08:04:51;;;;;;;100.13;41.10;;;10.30;99.90;;;;;;5023732;28;20060;-73
2021/12/15 08:07:17;;;;;;;102.77;42.70;;;10.40;99.90;;;;;;5022441;28;20026;-72
2021/12/15 08:09:45;;;;;;;74.63;36.63;;;10.40;99.90;;;;;;5016578;28;20109;-72
2021/12/15 08:12:11;;;;;;;96.10;42.03;;;10.40;99.90;;;;;;5025980;28;20037;-73
2021/12/15 08:14:37;;;;;;;99.13;41.77;;;10.40;99.90;;;;;;5035886;28;20103;-73
2021/12/15 08:17:02;;;;;;;88.33;41.77;;;10.40;99.90;;;;;;5036189;28;20374;-73
2021/12/15 08:19:28;;;;;;;86.90;39.60;;;10.40;99.90;;;;;;5036267;28;20039;-72
2021/12/15 08:21:54;;;;;;;89.27;38.73;;;10.40;99.90;;;;;;5035639;28;20057;-72
2021/12/15 08:24:20;;;;;;;89.63;40.00;;;10.40;99.90;;;;;;5018222;28;20041;-72
2021/12/15 08:26:45;;;;;;;97.87;42.93;;;10.40;99.90;;;;;;5018310;28;20040;-73
2021/12/15 08:29:11;;;;;;;83.97;37.40;;;10.60;99.90;;;;;;5035892;28;20513;-72
2021/12/15 08:31:37;;;;;;;91.63;42.20;;;10.40;99.90;;;;;;5018132;28;20117;-73
2021/12/15 08:34:03;;;;;;;93.03;40.43;;;10.50;99.90;;;;;;5035068;28;20116;-72
2021/12/15 08:36:29;;;;;;;96.13;40.87;;;10.50;99.90;;;;;;5016617;28;20064;-72
2021/12/15 08:38:55;;;;;;;106.87;44.53;;;10.50;99.90;;;;;;5035018;28;20041;-72
2021/12/15 08:41:24;;;;;;;98.60;42.47;;;10.50;99.90;;;;;;5001737;28;20040;-73
2021/12/15 08:43:51;;;;;;;96.13;42.23;;;10.50;99.90;;;;;;5035320;28;20014;-73
2021/12/15 08:46:20;;;;;;;93.33;39.73;;;10.50;99.90;;;;;;5017882;28;20444;-72
2021/12/15 08:48:47;;;;;;;96.07;41.00;;;10.50;99.90;;;;;;5035012;28;20429;-73
2021/12/15 08:51:15;;;;;;;96.23;40.77;;;10.50;99.90;;;;;;5035490;28;20072;-73
2021/12/15 08:53:42;;;;;;;90.73;40.40;;;10.50;99.90;;;;;;5017850;28;20038;-73
2021/12/15 08:56:09;;;;;;;87.82;40.38;;;10.50;99.90;;;;;;5035315;28;20045;-72
2021/12/15 08:58:35;;;;;;;93.10;41.40;;;10.50;99.90;;;;;;5017576;28;20036;-72
2021/12/15 09:01:03;;;;;;;99.57;40.47;;;10.60;99.90;;;;;;5003681;28;20038;-73
2021/12/15 09:03:30;;;;;;;100.33;40.60;;;10.50;99.90;;;;;;5016481;28;20042;-73
2021/12/15 09:05:58;;;;;;;99.30;42.20;;;10.60;99.90;;;;;;5035286;28;20060;-73
2021/12/15 09:08:24;;;;;;;97.47;41.50;;;10.60;99.90;;;;;;5046796;28;20028;-73
2021/12/15 09:10:53;;;;;;;87.32;40.42;;;10.60;99.90;;;;;;5053609;28;20461;-73
2021/12/15 09:13:18;;;;;;;99.30;41.83;;;10.60;99.90;;;;;;5024094;28;20465;-74
2021/12/15 09:15:44;;;;;;;97.47;42.40;;;10.60;99.90;;;;;;5031018;28;20041;-73
2021/12/15 09:18:11;;;;;;;98.53;42.67;;;10.60;99.90;;;;;;5015321;28;20029;-71
2021/12/15 09:20:41;;;;;;;95.45;42.03;;;10.60;99.90;;;;;;5017816;28;20056;-75
2021/12/15 09:23:08;;;;;;;97.40;41.50;;;10.60;99.90;;;;;;4981264;28;20038;-77
2021/12/15 09:25:36;;;;;;;97.80;42.07;;;10.60;99.90;;;;;;4997473;28;20026;-75
2021/12/15 09:28:02;;;;;;;100.97;43.47;;;10.70;99.90;;;;;;4997714;28;20062;-76
2021/12/15 09:30:30;;;;;;;102.63;42.73;;;10.60;99.90;;;;;;5014998;28;20058;-75
2021/12/15 09:32:57;;;;;;;95.67;40.73;;;10.60;99.90;;;;;;5016254;28;20038;-75
2021/12/15 09:35:25;;;;;;;96.72;41.67;;;10.70;99.90;;;;;;5034872;28;20109;-78
2021/12/15 09:37:51;;;;;;;95.22;40.92;;;10.70;99.90;;;;;;5017066;28;20033;-75
2021/12/15 09:40:18;;;;;;;85.20;38.87;;;10.70;99.90;;;;;;5017008;28;20569;-76
2021/12/15 09:42:44;;;;;;;98.27;41.27;;;10.70;99.90;;;;;;5016021;28;20041;-74
2021/12/15 09:56:26;;;;;;;92.78;43.67;;;10.70;99.90;;;;;;5019941;28;20060;-75
2021/12/15 10:04:32;;;;;;;93.87;42.60;;;10.70;99.90;;;;;;5033780;28;20172;-71
2021/12/15 10:18:00;;;;;;;88.10;40.70;;;10.80;99.90;;;;;;5034083;28;20057;-74
2021/12/15 10:20:27;;;;;;;97.23;43.57;;;10.90;99.90;;;;;;5033928;28;20398;-72
2021/12/15 10:22:59;;;;;;;90.73;44.13;;;10.90;99.90;;;;;;5033254;28;20436;-72
2021/12/15 10:25:30;;;;;;;83.65;42.42;;;10.90;99.90;;;;;;5033758;28;20052;-74
2021/12/15 10:28:07;;;;;;;83.05;39.33;;;10.90;99.90;;;;;;5033658;28;20017;-72
2021/12/15 10:30:43;;;;;;;84.40;42.22;;;10.90;99.90;;;;;;5033700;28;20148;-75
2021/12/15 10:33:10;;;;;;;84.65;43.72;;;11.00;99.90;;;;;;5029008;28;20527;-73
2021/12/15 10:35:45;;;;;;;88.33;42.57;;;11.00;99.90;;;;;;5015697;28;20481;-72
2021/12/15 10:38:31;;;;;;;86.23;43.20;;;11.00;99.90;;;;;;5028464;28;20033;-75
2021/12/15 10:41:15;;;;;;;82.97;42.78;;;11.00;99.90;;;;;;5028824;28;20033;-71
2021/12/15 10:43:57;;;;;;;79.95;41.90;;;11.10;99.90;;;;;;5009135;28;20045;-72
2021/12/15 10:46:25;;;;;;;83.10;42.90;;;11.10;99.90;;;;;;5032850;28;20021;-72
2021/12/15 10:49:22;;;;;;;79.63;41.03;;;11.10;99.90;;;;;;5015713;28;20025;-75
2021/12/15 10:52:09;;;;;;;76.75;41.25;;;11.10;99.90;;;;;;5030914;28;20040;-74
2021/12/15 10:54:46;;;;;;;76.13;41.22;;;11.10;99.90;;;;;;5015578;28;20025;-71
2021/12/15 10:57:27;;;;;;;68.45;38.42;;;11.10;99.90;;;;;;5033108;28;20087;-74
2021/12/15 10:59:55;;;;;;;72.63;38.75;;;11.10;99.90;;;;;;5032411;28;20022;-75
2021/12/15 11:02:25;;;;;;;74.18;40.50;;;11.20;99.90;;;;;;5015237;28;20508;-74
2021/12/15 11:05:01;;;;;;;74.55;38.88;;;11.20;99.90;;;;;;5014975;28;20021;-72
2021/12/15 11:07:34;;;;;;;77.40;41.15;;;11.30;99.90;;;;;;5032862;28;20025;-74
2021/12/15 11:10:10;;;;;;;76.80;40.08;;;11.30;99.90;;;;;;5022385;28;20026;-72
2021/12/15 11:12:48;;;;;;;67.07;37.75;;;11.30;99.90;;;;;;5012843;28;20494;-72
2021/12/15 11:15:23;;;;;;;65.80;36.28;;;11.30;99.90;;;;;;5012881;28;20028;-71
2021/12/15 11:18:01;;;;;;;69.00;37.35;;;11.30;99.90;;;;;;5027471;28;20025;-75
2021/12/15 11:20:35;;;;;;;67.13;36.20;;;11.40;99.90;;;;;;4995392;28;20030;-74
2021/12/15 11:23:19;;;;;;;75.43;38.88;;;11.40;99.90;;;;;;4998451;28;20050;-74
2021/12/15 11:25:56;;;;;;;65.60;36.35;;;11.50;99.90;;;;;;5032615;28;20036;-75
2021/12/15 11:28:24;;;;;;;60.92;35.20;;;11.50;99.90;;;;;;5032148;28;20037;-75
2021/12/15 11:31:14;;;;;;;67.38;38.28;;;11.60;99.90;;;;;;5014885;28;20022;-72
2021/12/15 11:33:45;;;;;;;65.88;38.20;;;11.60;99.90;;;;;;5014174;28;20121;-75
2021/12/15 11:36:19;;;;;;;62.20;36.10;;;11.60;99.90;;;;;;5032907;28;20025;-75
2021/12/15 11:38:52;;;;;;;63.25;36.00;;;11.50;99.90;;;;;;5014427;28;20071;-74
2021/12/15 11:41:21;;;;;;;59.67;37.55;;;11.60;99.90;;;;;;5029630;28;20029;-74
2021/12/15 11:43:56;;;;;;;61.72;38.05;;;11.50;99.90;;;;;;5032920;28;20389;-73
2021/12/15 11:46:29;;;;;;;62.42;36.97;;;11.60;99.90;;;;;;5033014;28;20022;-73
2021/12/15 11:49:03;;;;;;;63.58;37.83;;;11.60;99.90;;;;;;5016725;28;20037;-74
2021/12/15 11:51:40;;;;;;;62.28;36.55;;;11.50;99.90;;;;;;5013046;28;20054;-73
2021/12/15 11:54:16;;;;;;;56.47;33.05;;;11.50;99.90;;;;;;5020966;28;20522;-74
2021/12/15 11:56:44;;;;;;;61.88;37.05;;;11.50;99.90;;;;;;5015111;28;20393;-76
2021/12/15 11:59:19;;;;;;;64.10;37.47;;;11.50;99.90;;;;;;5015684;28;20033;-72
2021/12/15 12:01:51;;;;;;;56.05;35.67;;;11.50;99.90;;;;;;5013192;28;20045;-73
2021/12/15 12:04:25;;;;;;;58.97;35.25;;;11.50;99.90;;;;;;5013378;28;20033;-72
2021/12/15 12:06:52;;;;;;;;;;;11.50;99.90;;;;;;5013786;28;20105;-72
2021/12/15 12:09:20;;;;;;;57.53;35.00;;;11.50;99.90;;;;;;4995340;28;20003;-72
2021/12/15 12:11:52;;;;;;;55.17;35.38;;;11.60;99.90;;;;;;4997031;28;20034;-73
2021/12/15 12:14:36;;;;;;;56.78;35.60;;;11.60;99.90;;;;;;5017074;28;20379;-72
2021/12/15 12:17:05;;;;;;;51.88;34.00;;;11.60;99.90;;;;;;5002049;28;20065;-72
2021/12/15 12:19:31;;;;;;;54.03;34.80;;;11.60;99.90;;;;;;5016896;28;20029;-72
2021/12/15 12:21:57;;;;;;;55.05;35.17;;;11.60;99.90;;;;;;5026779;28;20045;-73
2021/12/15 12:24:23;;;;;;;56.25;32.03;;;11.60;99.90;;;;;;5015060;28;20207;-73
2021/12/15 12:26:50;;;;;;;50.08;32.65;;;11.70;99.90;;;;;;5015949;28;20022;-72
2021/12/15 12:29:16;;;;;;;46.88;31.02;;;11.70;99.90;;;;;;5016366;28;20026;-72
2021/12/15 12:31:42;;;;;;;48.08;31.67;;;11.70;99.90;;;;;;5015821;28;20347;-72
2021/12/15 12:34:08;;;;;;;50.30;31.88;;;11.70;99.90;;;;;;4998795;28;20053;-75
2021/12/15 12:36:35;;;;;;;42.92;28.33;;;11.80;99.90;;;;;;5016190;28;20041;-75
2021/12/15 12:39:08;;;;;;;44.25;29.90;;;12.00;99.90;;;;;;5016001;28;20049;-75
2021/12/15 12:41:40;;;;;;;39.42;26.85;;;12.20;99.90;;;;;;5015952;28;20018;-75
2021/12/15 12:44:07;;;;;;;45.85;29.20;;;12.20;99.90;;;;;;4998507;28;20072;-72
2021/12/15 12:46:52;;;;;;;37.58;26.73;;;12.20;99.90;;;;;;4998596;28;20030;-73
2021/12/15 13:00:42;;;;;;;44.20;28.75;;;12.00;99.60;;;;;;5015958;28;20049;-73
2021/12/15 13:03:18;;;;;;;43.22;29.05;;;12.10;99.60;;;;;;5015586;28;20026;-73
2021/12/15 13:05:49;;;;;;;42.67;28.45;;;12.10;99.70;;;;;;4997958;28;20437;-73
2021/12/15 13:08:36;;;;;;;45.97;27.40;;;12.00;99.70;;;;;;5015605;28;20037;-73
2021/12/15 13:11:18;;;;;;;39.08;25.23;;;12.00;99.90;;;;;;4997987;28;20057;-73
2021/12/15 13:14:08;;;;;;;37.50;25.02;;;12.00;99.70;;;;;;5015568;28;20030;-73
2021/12/15 13:16:56;;;;;;;41.80;26.60;;;12.00;99.70;;;;;;4997799;28;20049;-76
2021/12/15 13:19:29;;;;;;;36.10;24.95;;;12.10;99.70;;;;;;4997789;28;20022;-76
2021/12/15 13:28:51;;;;;;;35.53;24.67;;;12.10;99.30;;;;;;5015402;28;20037;-73
2021/12/15 13:31:00;;;;;;;38.95;24.27;;;12.10;99.20;;;;;;5009235;28;20018;-73
2021/12/15 13:33:35;;;;;;;37.33;23.50;;;12.10;99.60;;;;;;5014951;28;20068;-73
2021/12/15 13:36:42;;;;;;;37.80;24.30;;;12.10;99.30;;;;;;4997379;28;20034;-73
2021/12/15 13:39:12;;;;;;;37.83;22.88;;;12.10;99.20;;;;;;5014932;28;20099;-73
2021/12/15 13:42:16;;;;;;;37.72;26.48;;;12.10;99.00;;;;;;4997207;28;20026;-75
2021/12/15 13:44:47;;;;;;;34.72;21.55;;;12.10;99.00;;;;;;5012429;28;20030;-76
2021/12/15 13:47:16;;;;;;;34.50;23.17;;;11.90;98.80;;;;;;4997065;28;20037;-75
2021/12/15 13:49:44;;;;;;;32.58;22.08;;;12.00;98.80;;;;;;5014707;28;20474;-76
2021/12/15 13:52:28;;;;;;;33.42;22.80;;;12.00;98.70;;;;;;5014689;28;20030;-75
2021/12/15 13:55:05;;;;;;;33.33;20.95;;;12.00;98.80;;;;;;4996957;28;20117;-73
2021/12/15 13:57:38;;;;;;;31.08;19.92;;;12.00;98.70;;;;;;4997062;28;20470;-73
2021/12/15 14:00:12;;;;;;;31.58;18.95;;;12.00;98.70;;;;;;5014646;28;20030;-73
2021/12/15 14:03:01;;;;;;;27.52;18.77;;;11.90;98.70;;;;;;4996715;28;20041;-73
2021/12/15 14:05:33;;;;;;;26.33;18.25;;;11.90;98.70;;;;;;5007439;28;20070;-72
2021/12/15 14:08:03;;;;;;;29.00;18.23;;;11.90;98.70;;;;;;5014435;28;20030;-71
2021/12/15 14:10:29;;;;;;;24.45;15.95;;;11.80;98.60;;;;;;5004557;28;20037;-76
2021/12/15 14:12:58;;;;;;;26.38;16.08;;;11.80;98.60;;;;;;5012806;28;20037;-75
2021/12/15 14:15:27;;;;;;;27.05;15.82;;;11.80;98.60;;;;;;4995650;28;20120;-76